sensor_id;sensor_type;location;lat;lon;timestamp;pressure;altitude;pressure_sealevel;temperature;humidity
45345;BME280;31078;48.304;11.896;2023-07-13T00:02:11;96218.59;;;18.10;100.00
45345;BME280;31078;48.304;11.896;2023-07-13T00:04:38;96216.31;;;18.16;100.00
45345;BME280;31078;48.304;11.896;2023-07-13T00:07:05;96218.56;;;18.07;100.00
45345;BME280;31078;48.304;11.896;2023-07-13T00:09:31;96224.00;;;18.03;100.00
45345;BME280;31078;48.304;11.896;2023-07-13T00:11:58;96212.88;;;17.96;100.00
45345;BME280;31078;48.304;11.896;2023-07-13T00:14:25;96215.13;;;17.90;100.00
45345;BME280;31078;48.304;11.896;2023-07-13T00:16:53;96193.22;;;17.97;100.00
45345;BME280;31078;48.304;11.896;2023-07-13T00:19:19;96191.50;;;17.89;100.00
45345;BME280;31078;48.304;11.896;2023-07-13T00:21:47;96188.41;;;17.91;100.00
45345;BME280;31078;48.304;11.896;2023-07-13T00:24:15;96192.13;;;17.79;100.00
45345;BME280;31078;48.304;11.896;2023-07-13T00:26:47;96194.16;;;17.82;100.00
45345;BME280;31078;48.304;11.896;2023-07-13T00:29:13;96203.59;;;17.81;100.00
45345;BME280;31078;48.304;11.896;2023-07-13T00:31:41;96209.41;;;17.76;100.00
45345;BME280;31078;48.304;11.896;2023-07-13T00:34:09;96212.44;;;17.71;100.00
45345;BME280;31078;48.304;11.896;2023-07-13T00:36:35;96213.59;;;17.70;100.00
45345;BME280;31078;48.304;11.896;2023-07-13T00:39:03;96214.03;;;17.72;100.00
45345;BME280;31078;48.304;11.896;2023-07-13T00:41:30;96215.63;;;17.73;100.00
45345;BME280;31078;48.304;11.896;2023-07-13T00:43:57;96207.66;;;17.68;100.00
45345;BME280;31078;48.304;11.896;2023-07-13T00:46:27;96215.91;;;17.68;100.00
45345;BME280;31078;48.304;11.896;2023-07-13T00:48:56;96214.03;;;17.72;100.00
45345;BME280;31078;48.304;11.896;2023-07-13T00:51:28;96218.75;;;17.71;100.00
45345;BME280;31078;48.304;11.896;2023-07-13T00:53:59;96215.53;;;17.69;100.00
45345;BME280;31078;48.304;11.896;2023-07-13T00:56:27;96207.50;;;17.80;100.00
45345;BME280;31078;48.304;11.896;2023-07-13T00:58:55;96201.50;;;17.74;100.00
45345;BME280;31078;48.304;11.896;2023-07-13T01:01:22;96193.50;;;17.69;100.00
45345;BME280;31078;48.304;11.896;2023-07-13T01:03:49;96206.78;;;17.64;100.00
45345;BME280;31078;48.304;11.896;2023-07-13T01:06:15;96209.84;;;17.59;100.00
45345;BME280;31078;48.304;11.896;2023-07-13T01:08:42;96206.56;;;17.50;100.00
45345;BME280;31078;48.304;11.896;2023-07-13T01:11:09;96218.56;;;17.61;100.00
45345;BME280;31078;48.304;11.896;2023-07-13T01:13:37;96210.72;;;17.63;100.00
45345;BME280;31078;48.304;11.896;2023-07-13T01:16:10;96206.84;;;17.67;100.00
45345;BME280;31078;48.304;11.896;2023-07-13T01:18:38;96199.91;;;17.73;100.00
45345;BME280;31078;48.304;11.896;2023-07-13T01:21:05;96202.41;;;17.59;100.00
45345;BME280;31078;48.304;11.896;2023-07-13T01:23:32;96195.84;;;17.67;100.00
45345;BME280;31078;48.304;11.896;2023-07-13T01:25:59;96194.31;;;17.70;100.00
45345;BME280;31078;48.304;11.896;2023-07-13T01:28:27;96180.28;;;17.75;100.00
45345;BME280;31078;48.304;11.896;2023-07-13T01:30:55;96181.09;;;17.79;100.00
45345;BME280;31078;48.304;11.896;2023-07-13T01:33:22;96183.13;;;17.82;100.00
45345;BME280;31078;48.304;11.896;2023-07-13T01:35:49;96177.63;;;17.82;100.00
45345;BME280;31078;48.304;11.896;2023-07-13T01:38:19;96175.78;;;17.90;100.00
45345;BME280;31078;48.304;11.896;2023-07-13T01:40:47;96170.84;;;17.76;100.00
45345;BME280;31078;48.304;11.896;2023-07-13T01:43:13;96179.97;;;17.80;100.00
45345;BME280;31078;48.304;11.896;2023-07-13T01:45:40;96175.56;;;17.76;100.00
45345;BME280;31078;48.304;11.896;2023-07-13T01:48:09;96168.09;;;17.76;100.00
45345;BME280;31078;48.304;11.896;2023-07-13T01:50:35;96165.28;;;17.72;100.00
45345;BME280;31078;48.304;11.896;2023-07-13T01:53:02;96170.69;;;17.69;100.00
45345;BME280;31078;48.304;11.896;2023-07-13T01:55:32;96175.06;;;17.70;100.00
45345;BME280;31078;48.304;11.896;2023-07-13T01:57:58;96178.66;;;17.74;100.00
45345;BME280;31078;48.304;11.896;2023-07-13T02:00:25;96189.69;;;17.74;100.00
45345;BME280;31078;48.304;11.896;2023-07-13T02:02:51;96191.41;;;17.82;100.00
45345;BME280;31078;48.304;11.896;2023-07-13T02:05:18;96204.09;;;17.90;100.00
45345;BME280;31078;48.304;11.896;2023-07-13T02:07:45;96208.59;;;17.98;100.00
45345;BME280;31078;48.304;11.896;2023-07-13T02:10:12;96213.53;;;17.89;100.00
45345;BME280;31078;48.304;11.896;2023-07-13T02:12:40;96212.69;;;17.85;100.00
45345;BME280;31078;48.304;11.896;2023-07-13T02:15:07;96205.59;;;17.84;100.00
45345;BME280;31078;48.304;11.896;2023-07-13T02:17:35;96206.75;;;17.83;100.00
45345;BME280;31078;48.304;11.896;2023-07-13T02:20:02;96212.69;;;17.85;100.00
45345;BME280;31078;48.304;11.896;2023-07-13T02:22:30;96200.78;;;17.78;100.00
45345;BME280;31078;48.304;11.896;2023-07-13T02:24:56;96197.50;;;17.72;100.00
45345;BME280;31078;48.304;11.896;2023-07-13T02:27:23;96198.09;;;17.62;100.00
45345;BME280;31078;48.304;11.896;2023-07-13T02:29:50;96204.94;;;17.48;100.00
45345;BME280;31078;48.304;11.896;2023-07-13T02:32:17;96202.94;;;17.45;100.00
45345;BME280;31078;48.304;11.896;2023-07-13T02:34:44;96206.28;;;17.35;100.00
45345;BME280;31078;48.304;11.896;2023-07-13T02:37:10;96204.72;;;17.34;100.00
45345;BME280;31078;48.304;11.896;2023-07-13T02:39:37;96208.81;;;17.44;100.00
45345;BME280;31078;48.304;11.896;2023-07-13T02:42:04;96217.56;;;17.50;100.00
45345;BME280;31078;48.304;11.896;2023-07-13T02:44:30;96214.81;;;17.50;100.00
45345;BME280;31078;48.304;11.896;2023-07-13T02:46:58;96209.31;;;17.50;100.00
45345;BME280;31078;48.304;11.896;2023-07-13T02:49:25;96210.22;;;17.57;100.00
45345;BME280;31078;48.304;11.896;2023-07-13T02:51:51;96205.75;;;17.49;100.00
45345;BME280;31078;48.304;11.896;2023-07-13T02:54:18;96213.66;;;17.51;100.00
45345;BME280;31078;48.304;11.896;2023-07-13T02:56:44;96214.50;;;17.55;100.00
45345;BME280;31078;48.304;11.896;2023-07-13T02:59:11;96217.69;;;17.57;100.00
45345;BME280;31078;48.304;11.896;2023-07-13T03:01:37;96227.78;;;17.49;100.00
45345;BME280;31078;48.304;11.896;2023-07-13T03:04:05;96233.22;;;17.45;100.00
45345;BME280;31078;48.304;11.896;2023-07-13T03:06:32;96234.88;;;17.50;100.00
45345;BME280;31078;48.304;11.896;2023-07-13T03:08:59;96234.81;;;17.46;100.00
45345;BME280;31078;48.304;11.896;2023-07-13T03:11:26;96229.50;;;17.57;100.00
45345;BME280;31078;48.304;11.896;2023-07-13T03:13:53;96245.34;;;17.64;100.00
45345;BME280;31078;48.304;11.896;2023-07-13T03:16:19;96248.97;;;17.68;100.00
45345;BME280;31078;48.304;11.896;2023-07-13T03:18:46;96251.28;;;17.66;100.00
45345;BME280;31078;48.304;11.896;2023-07-13T03:21:15;96250.34;;;17.78;100.00
45345;BME280;31078;48.304;11.896;2023-07-13T03:23:41;96240.13;;;17.78;100.00
45345;BME280;31078;48.304;11.896;2023-07-13T03:26:10;96245.56;;;17.74;100.00
45345;BME280;31078;48.304;11.896;2023-07-13T03:28:38;96249.13;;;17.75;100.00
45345;BME280;31078;48.304;11.896;2023-07-13T03:31:08;96246.19;;;17.68;100.00
45345;BME280;31078;48.304;11.896;2023-07-13T03:33:35;96237.53;;;17.66;100.00
45345;BME280;31078;48.304;11.896;2023-07-13T03:36:02;96244.91;;;17.62;100.00
45345;BME280;31078;48.304;11.896;2023-07-13T03:38:30;96260.88;;;17.53;100.00
45345;BME280;31078;48.304;11.896;2023-07-13T03:40:57;96259.28;;;17.52;100.00
45345;BME280;31078;48.304;11.896;2023-07-13T03:43:23;96263.81;;;17.40;100.00
45345;BME280;31078;48.304;11.896;2023-07-13T03:45:50;96264.72;;;17.48;100.00
45345;BME280;31078;48.304;11.896;2023-07-13T03:48:16;96264.72;;;17.48;100.00
45345;BME280;31078;48.304;11.896;2023-07-13T03:50:43;96270.81;;;17.38;100.00
45345;BME280;31078;48.304;11.896;2023-07-13T03:53:09;96265.97;;;17.31;100.00
45345;BME280;31078;48.304;11.896;2023-07-13T03:55:37;96272.13;;;17.25;100.00
45345;BME280;31078;48.304;11.896;2023-07-13T03:58:26;96272.84;;;17.21;100.00
45345;BME280;31078;48.304;11.896;2023-07-13T04:00:52;96267.31;;;17.18;100.00
45345;BME280;31078;48.304;11.896;2023-07-13T04:03:19;96272.84;;;17.21;100.00
45345;BME280;31078;48.304;11.896;2023-07-13T04:05:45;96269.47;;;17.09;100.00
45345;BME280;31078;48.304;11.896;2023-07-13T04:08:12;96273.97;;;16.98;100.00
45345;BME280;31078;48.304;11.896;2023-07-13T04:10:40;96278.00;;;17.04;100.00
45345;BME280;31078;48.304;11.896;2023-07-13T04:13:06;96271.63;;;17.00;100.00
45345;BME280;31078;48.304;11.896;2023-07-13T04:15:33;96269.03;;;16.87;100.00
45345;BME280;31078;48.304;11.896;2023-07-13T04:17:59;96272.19;;;16.89;100.00
45345;BME280;31078;48.304;11.896;2023-07-13T04:20:26;96281.31;;;16.93;100.00
45345;BME280;31078;48.304;11.896;2023-07-13T04:22:52;96289.00;;;17.04;100.00
45345;BME280;31078;48.304;11.896;2023-07-13T04:25:20;96278.72;;;17.01;100.00
45345;BME280;31078;48.304;11.896;2023-07-13T04:27:49;96286.84;;;17.13;100.00
45345;BME280;31078;48.304;11.896;2023-07-13T04:30:15;96284.22;;;17.01;100.00
45345;BME280;31078;48.304;11.896;2023-07-13T04:32:42;96284.09;;;16.93;100.00
45345;BME280;31078;48.304;11.896;2023-07-13T04:35:08;96292.56;;;17.04;100.00
45345;BME280;31078;48.304;11.896;2023-07-13T04:37:35;96290.59;;;17.05;100.00
45345;BME280;31078;48.304;11.896;2023-07-13T04:40:02;96300.00;;;17.04;100.00
45345;BME280;31078;48.304;11.896;2023-07-13T04:42:29;96295.44;;;17.11;100.00
45345;BME280;31078;48.304;11.896;2023-07-13T04:44:57;96301.75;;;17.12;100.00
45345;BME280;31078;48.304;11.896;2023-07-13T04:47:24;96304.63;;;17.00;100.00
45345;BME280;31078;48.304;11.896;2023-07-13T04:49:50;96294.78;;;16.99;100.00
45345;BME280;31078;48.304;11.896;2023-07-13T04:52:17;96303.19;;;17.06;100.00
45345;BME280;31078;48.304;11.896;2023-07-13T04:54:43;96294.66;;;17.11;100.00
45345;BME280;31078;48.304;11.896;2023-07-13T04:57:09;96301.75;;;17.12;100.00
45345;BME280;31078;48.304;11.896;2023-07-13T04:59:36;96311.38;;;17.21;100.00
45345;BME280;31078;48.304;11.896;2023-07-13T05:02:04;96316.69;;;17.30;100.00
45345;BME280;31078;48.304;11.896;2023-07-13T05:04:31;96313.13;;;17.30;100.00
45345;BME280;31078;48.304;11.896;2023-07-13T05:06:58;96313.34;;;17.21;100.00
45345;BME280;31078;48.304;11.896;2023-07-13T05:09:25;96324.22;;;17.33;100.00
45345;BME280;31078;48.304;11.896;2023-07-13T05:11:52;96315.50;;;17.31;100.00
45345;BME280;31078;48.304;11.896;2023-07-13T05:14:18;96320.81;;;17.20;100.00
45345;BME280;31078;48.304;11.896;2023-07-13T05:16:45;96323.34;;;17.29;100.00
45345;BME280;31078;48.304;11.896;2023-07-13T05:19:12;96318.84;;;17.21;100.00
45345;BME280;31078;48.304;11.896;2023-07-13T05:21:39;96336.03;;;17.34;100.00
45345;BME280;31078;48.304;11.896;2023-07-13T05:24:06;96330.81;;;17.29;100.00
45345;BME280;31078;48.304;11.896;2023-07-13T05:26:32;96326.53;;;17.31;100.00
45345;BME280;31078;48.304;11.896;2023-07-13T05:28:59;96336.16;;;17.41;100.00
45345;BME280;31078;48.304;11.896;2023-07-13T05:31:25;96339.69;;;17.41;100.00
45345;BME280;31078;48.304;11.896;2023-07-13T05:33:53;96336.72;;;17.31;100.00
45345;BME280;31078;48.304;11.896;2023-07-13T05:36:21;96338.41;;;17.35;100.00
45345;BME280;31078;48.304;11.896;2023-07-13T05:38:47;96337.38;;;17.43;100.00
45345;BME280;31078;48.304;11.896;2023-07-13T05:41:13;96344.13;;;17.46;100.00
45345;BME280;31078;48.304;11.896;2023-07-13T05:43:40;96344.78;;;17.39;100.00
45345;BME280;31078;48.304;11.896;2023-07-13T05:46:06;96341.28;;;17.42;100.00
45345;BME280;31078;48.304;11.896;2023-07-13T05:48:33;96342.44;;;17.22;100.00
45345;BME280;31078;48.304;11.896;2023-07-13T05:51:00;96342.03;;;17.20;100.00
45345;BME280;31078;48.304;11.896;2023-07-13T05:53:29;96344.13;;;17.07;100.00
45345;BME280;31078;48.304;11.896;2023-07-13T05:55:55;96340.69;;;16.94;100.00
45345;BME280;31078;48.304;11.896;2023-07-13T05:58:22;96339.53;;;16.95;100.00
45345;BME280;31078;48.304;11.896;2023-07-13T06:00:48;96348.94;;;16.94;100.00
45345;BME280;31078;48.304;11.896;2023-07-13T06:03:15;96348.94;;;16.94;100.00
45345;BME280;31078;48.304;11.896;2023-07-13T06:05:41;96352.56;;;16.99;100.00
45345;BME280;31078;48.304;11.896;2023-07-13T06:08:08;96347.94;;;17.03;100.00
45345;BME280;31078;48.304;11.896;2023-07-13T06:10:36;96345.63;;;17.05;100.00
45345;BME280;31078;48.304;11.896;2023-07-13T06:13:04;96346.94;;;17.11;100.00
45345;BME280;31078;48.304;11.896;2023-07-13T06:15:30;96352.22;;;17.19;100.00
45345;BME280;31078;48.304;11.896;2023-07-13T06:17:57;96356.06;;;17.15;100.00
45345;BME280;31078;48.304;11.896;2023-07-13T06:20:23;96354.97;;;17.19;100.00
45345;BME280;31078;48.304;11.896;2023-07-13T06:22:50;96354.19;;;17.19;100.00
45345;BME280;31078;48.304;11.896;2023-07-13T06:25:16;96362.72;;;17.14;100.00
45345;BME280;31078;48.304;11.896;2023-07-13T06:27:44;96362.88;;;17.21;100.00
45345;BME280;31078;48.304;11.896;2023-07-13T06:30:11;96368.81;;;17.23;100.00
45345;BME280;31078;48.304;11.896;2023-07-13T06:32:38;96365.78;;;17.28;100.00
45345;BME280;31078;48.304;11.896;2023-07-13T06:35:05;96365.22;;;17.38;100.00
45345;BME280;31078;48.304;11.896;2023-07-13T06:37:32;96361.34;;;17.43;100.00
45345;BME280;31078;48.304;11.896;2023-07-13T06:39:58;96365.34;;;17.45;100.00
45345;BME280;31078;48.304;11.896;2023-07-13T06:42:25;96370.28;;;17.56;100.00
45345;BME280;31078;48.304;11.896;2023-07-13T06:44:53;96376.09;;;17.70;100.00
45345;BME280;31078;48.304;11.896;2023-07-13T06:47:19;96375.22;;;17.66;100.00
45345;BME280;31078;48.304;11.896;2023-07-13T06:49:46;96374.69;;;17.80;100.00
45345;BME280;31078;48.304;11.896;2023-07-13T06:52:12;96370.13;;;17.87;100.00
45345;BME280;31078;48.304;11.896;2023-07-13T06:54:39;96374.97;;;17.94;100.00
45345;BME280;31078;48.304;11.896;2023-07-13T06:57:05;96386.75;;;18.14;100.00
45345;BME280;31078;48.304;11.896;2023-07-13T06:59:32;96391.09;;;18.15;100.00
45345;BME280;31078;48.304;11.896;2023-07-13T07:02:00;96403.41;;;18.21;100.00
45345;BME280;31078;48.304;11.896;2023-07-13T07:04:26;96409.22;;;17.93;100.00
45345;BME280;31078;48.304;11.896;2023-07-13T07:06:53;96404.00;;;17.88;100.00
45345;BME280;31078;48.304;11.896;2023-07-13T07:09:20;96401.03;;;17.96;100.00
45345;BME280;31078;48.304;11.896;2023-07-13T07:11:46;96402.44;;;17.90;100.00
45345;BME280;31078;48.304;11.896;2023-07-13T07:14:13;96398.91;;;17.90;100.00
45345;BME280;31078;48.304;11.896;2023-07-13T07:16:39;96406.94;;;17.98;100.00
45345;BME280;31078;48.304;11.896;2023-07-13T07:19:07;96405.06;;;18.03;100.00
45345;BME280;31078;48.304;11.896;2023-07-13T07:21:33;96404.47;;;18.13;100.00
45345;BME280;31078;48.304;11.896;2023-07-13T07:24:00;96409.63;;;17.95;100.00
45345;BME280;31078;48.304;11.896;2023-07-13T07:26:28;96408.84;;;17.94;100.00
45345;BME280;31078;48.304;11.896;2023-07-13T07:28:54;96410.88;;;17.78;98.04
45345;BME280;31078;48.304;11.896;2023-07-13T07:31:21;96412.19;;;17.84;93.58
45345;BME280;31078;48.304;11.896;2023-07-13T07:33:47;96416.84;;;17.80;92.34
45345;BME280;31078;48.304;11.896;2023-07-13T07:36:16;96418.53;;;17.69;95.89
45345;BME280;31078;48.304;11.896;2023-07-13T07:38:43;96420.38;;;17.81;95.96
45345;BME280;31078;48.304;11.896;2023-07-13T07:41:10;96406.22;;;18.02;97.46
45345;BME280;31078;48.304;11.896;2023-07-13T07:43:36;96418.66;;;18.15;98.21
45345;BME280;31078;48.304;11.896;2023-07-13T07:46:03;96414.28;;;18.33;95.97
45345;BME280;31078;48.304;11.896;2023-07-13T07:48:30;96408.16;;;18.43;91.03
45345;BME280;31078;48.304;11.896;2023-07-13T07:50:58;96422.97;;;18.35;86.50
45345;BME280;31078;48.304;11.896;2023-07-13T07:53:26;96429.59;;;18.31;86.80
45345;BME280;31078;48.304;11.896;2023-07-13T07:55:53;96424.75;;;18.24;89.05
45345;BME280;31078;48.304;11.896;2023-07-13T07:58:19;96417.81;;;18.11;85.44
45345;BME280;31078;48.304;11.896;2023-07-13T08:00:46;96425.38;;;17.94;84.53
45345;BME280;31078;48.304;11.896;2023-07-13T08:03:12;96437.84;;;17.88;86.53
45345;BME280;31078;48.304;11.896;2023-07-13T08:05:38;96433.88;;;17.86;86.34
45345;BME280;31078;48.304;11.896;2023-07-13T08:08:05;96436.63;;;17.86;89.77
45345;BME280;31078;48.304;11.896;2023-07-13T08:10:35;96444.06;;;17.85;84.74
45345;BME280;31078;48.304;11.896;2023-07-13T08:13:01;96442.44;;;17.81;85.09
45345;BME280;31078;48.304;11.896;2023-07-13T08:15:28;96444.06;;;17.85;85.77
45345;BME280;31078;48.304;11.896;2023-07-13T08:17:54;96458.44;;;17.94;86.03
45345;BME280;31078;48.304;11.896;2023-07-13T08:20:21;96463.00;;;17.87;81.13
45345;BME280;31078;48.304;11.896;2023-07-13T08:22:47;96463.94;;;17.94;80.71
45345;BME280;31078;48.304;11.896;2023-07-13T08:25:14;96462.25;;;17.90;82.43
45345;BME280;31078;48.304;11.896;2023-07-13T08:27:41;96466.25;;;17.92;82.65
45345;BME280;31078;48.304;11.896;2023-07-13T08:30:09;96465.53;;;17.95;83.52
45345;BME280;31078;48.304;11.896;2023-07-13T08:32:36;96473.50;;;18.00;81.11
45345;BME280;31078;48.304;11.896;2023-07-13T08:35:02;96473.22;;;18.06;81.82
45345;BME280;31078;48.304;11.896;2023-07-13T08:37:29;96477.59;;;18.07;82.09
45345;BME280;31078;48.304;11.896;2023-07-13T08:39:55;96481.47;;;18.06;81.19
45345;BME280;31078;48.304;11.896;2023-07-13T08:42:32;96484.25;;;17.86;80.89
45345;BME280;31078;48.304;11.896;2023-07-13T08:45:08;96487.56;;;17.95;81.63
45345;BME280;31078;48.304;11.896;2023-07-13T08:47:42;96485.34;;;18.01;81.76
45345;BME280;31078;48.304;11.896;2023-07-13T08:50:12;96481.34;;;17.98;81.51
45345;BME280;31078;48.304;11.896;2023-07-13T08:52:41;96479.47;;;18.03;81.13
45345;BME280;31078;48.304;11.896;2023-07-13T08:55:15;96486.97;;;18.06;80.32
45345;BME280;31078;48.304;11.896;2023-07-13T08:57:48;96488.09;;;18.01;81.61
45345;BME280;31078;48.304;11.896;2023-07-13T09:00:17;96496.56;;;18.12;79.79
45345;BME280;31078;48.304;11.896;2023-07-13T09:02:46;96500.94;;;18.13;81.83
45345;BME280;31078;48.304;11.896;2023-07-13T09:05:21;96499.84;;;17.98;80.76
45345;BME280;31078;48.304;11.896;2023-07-13T09:08:00;96504.38;;;17.90;80.43
45345;BME280;31078;48.304;11.896;2023-07-13T09:10:31;96503.66;;;17.93;80.72
45345;BME280;31078;48.304;11.896;2023-07-13T09:13:14;96509.69;;;17.99;74.03
45345;BME280;31078;48.304;11.896;2023-07-13T09:15:47;96516.66;;;17.93;73.32
45345;BME280;31078;48.304;11.896;2023-07-13T09:18:21;96525.50;;;17.67;69.71
45345;BME280;31078;48.304;11.896;2023-07-13T09:20:50;96511.81;;;17.35;66.33
45345;BME280;31078;48.304;11.896;2023-07-13T09:23:21;96503.88;;;17.50;68.23
45345;BME280;31078;48.304;11.896;2023-07-13T09:25:51;96504.03;;;17.57;70.13
45345;BME280;31078;48.304;11.896;2023-07-13T09:28:24;96498.53;;;17.57;72.71
45345;BME280;31078;48.304;11.896;2023-07-13T09:30:58;96499.78;;;17.43;66.79
45345;BME280;31078;48.304;11.896;2023-07-13T09:33:27;96497.81;;;17.60;67.81
45345;BME280;31078;48.304;11.896;2023-07-13T09:35:56;96494.78;;;17.65;71.78
45345;BME280;31078;48.304;11.896;2023-07-13T09:38:24;96501.59;;;17.71;71.46
45345;BME280;31078;48.304;11.896;2023-07-13T09:41:08;96508.53;;;17.81;71.23
45345;BME280;31078;48.304;11.896;2023-07-13T09:44:09;96505.13;;;17.87;74.01
45345;BME280;31078;48.304;11.896;2023-07-13T09:46:39;96507.41;;;17.85;68.43
45345;BME280;31078;48.304;11.896;2023-07-13T09:49:09;96514.31;;;17.95;67.80
45345;BME280;31078;48.304;11.896;2023-07-13T09:51:36;96508.31;;;18.09;68.22
45345;BME280;31078;48.304;11.896;2023-07-13T09:54:03;96510.06;;;18.17;70.36
45345;BME280;31078;48.304;11.896;2023-07-13T09:56:29;96511.66;;;18.18;67.19
45345;BME280;31078;48.304;11.896;2023-07-13T09:58:56;96499.38;;;18.35;69.32
45345;BME280;31078;48.304;11.896;2023-07-13T10:01:34;96500.06;;;18.51;72.63
45345;BME280;31078;48.304;11.896;2023-07-13T10:04:10;96502.53;;;18.56;67.87
45345;BME280;31078;48.304;11.896;2023-07-13T10:06:38;96500.44;;;18.69;66.16
45345;BME280;31078;48.304;11.896;2023-07-13T10:09:07;96508.03;;;18.75;64.36
45345;BME280;31078;48.304;11.896;2023-07-13T10:11:34;96506.56;;;18.82;63.46
45345;BME280;31078;48.304;11.896;2023-07-13T10:14:09;96510.53;;;18.84;66.01
45345;BME280;31078;48.304;11.896;2023-07-13T10:16:36;96507.22;;;18.98;68.94
45345;BME280;31078;48.304;11.896;2023-07-13T10:19:09;96502.50;;;18.98;68.48
45345;BME280;31078;48.304;11.896;2023-07-13T10:21:39;96507.09;;;19.14;68.51
45345;BME280;31078;48.304;11.896;2023-07-13T10:24:13;96508.69;;;19.15;65.72
45345;BME280;31078;48.304;11.896;2023-07-13T10:26:43;96512.84;;;19.28;63.11
45345;BME280;31078;48.304;11.896;2023-07-13T10:29:14;96509.16;;;19.43;66.85
45345;BME280;31078;48.304;11.896;2023-07-13T10:31:44;96513.44;;;19.64;63.65
45345;BME280;31078;48.304;11.896;2023-07-13T10:34:13;96512.13;;;19.84;65.95
45345;BME280;31078;48.304;11.896;2023-07-13T10:36:43;96514.72;;;20.00;65.53
45345;BME280;31078;48.304;11.896;2023-07-13T10:39:15;96517.97;;;20.09;63.93
45345;BME280;31078;48.304;11.896;2023-07-13T10:41:44;96513.50;;;20.31;63.08
45345;BME280;31078;48.304;11.896;2023-07-13T10:44:20;96516.94;;;20.54;60.69
45345;BME280;31078;48.304;11.896;2023-07-13T10:46:51;96506.06;;;20.72;62.09
45345;BME280;31078;48.304;11.896;2023-07-13T10:49:20;96514.88;;;20.85;60.34
45345;BME280;31078;48.304;11.896;2023-07-13T10:51:47;96514.13;;;20.88;60.60
45345;BME280;31078;48.304;11.896;2023-07-13T10:54:17;96513.50;;;21.05;58.67
45345;BME280;31078;48.304;11.896;2023-07-13T10:56:54;96512.63;;;20.94;56.76
45345;BME280;31078;48.304;11.896;2023-07-13T10:59:33;96521.19;;;20.82;59.21
45345;BME280;31078;48.304;11.896;2023-07-13T11:02:10;96503.25;;;21.13;58.01
45345;BME280;31078;48.304;11.896;2023-07-13T11:04:43;96507.41;;;21.30;59.59
45345;BME280;31078;48.304;11.896;2023-07-13T11:07:19;96511.50;;;21.50;56.04
45345;BME280;31078;48.304;11.896;2023-07-13T11:09:50;96515.34;;;21.35;57.45
45345;BME280;31078;48.304;11.896;2023-07-13T11:12:51;96510.56;;;21.32;57.61
45345;BME280;31078;48.304;11.896;2023-07-13T11:15:32;96509.72;;;21.28;56.92
45345;BME280;31078;48.304;11.896;2023-07-13T11:18:20;96515.41;;;21.42;56.73
45345;BME280;31078;48.304;11.896;2023-07-13T11:20:48;96522.34;;;21.22;55.01
45345;BME280;31078;48.304;11.896;2023-07-13T11:23:33;96521.53;;;21.21;53.78
45345;BME280;31078;48.304;11.896;2023-07-13T11:26:38;96523.16;;;21.29;53.89
45345;BME280;31078;48.304;11.896;2023-07-13T11:29:08;96518.19;;;21.01;55.99
45345;BME280;31078;48.304;11.896;2023-07-13T11:31:36;96520.75;;;21.24;54.94
45345;BME280;31078;48.304;11.896;2023-07-13T11:34:12;96514.78;;;21.19;53.98
45345;BME280;31078;48.304;11.896;2023-07-13T11:36:44;96526.28;;;21.21;55.39
45345;BME280;31078;48.304;11.896;2023-07-13T11:39:17;96520.63;;;21.06;55.83
45345;BME280;31078;48.304;11.896;2023-07-13T11:41:50;96523.09;;;21.19;56.64
45345;BME280;31078;48.304;11.896;2023-07-13T11:44:20;96523.25;;;21.33;55.94
45345;BME280;31078;48.304;11.896;2023-07-13T11:46:48;96523.09;;;21.19;53.73
45345;BME280;31078;48.304;11.896;2023-07-13T11:49:17;96513.59;;;21.16;55.10
45345;BME280;31078;48.304;11.896;2023-07-13T11:51:45;96510.63;;;21.39;56.27
45345;BME280;31078;48.304;11.896;2023-07-13T11:54:22;96506.41;;;21.59;54.06
45345;BME280;31078;48.304;11.896;2023-07-13T11:56:49;96494.28;;;21.85;55.47
45345;BME280;31078;48.304;11.896;2023-07-13T11:59:17;96490.47;;;22.11;54.21
45345;BME280;31078;48.304;11.896;2023-07-13T12:01:46;96480.19;;;22.16;57.26
45345;BME280;31078;48.304;11.896;2023-07-13T12:04:22;96476.31;;;22.34;55.45
45345;BME280;31078;48.304;11.896;2023-07-13T12:06:56;96477.91;;;22.43;51.77
45345;BME280;31078;48.304;11.896;2023-07-13T12:09:26;96474.72;;;22.37;53.31
45345;BME280;31078;48.304;11.896;2023-07-13T12:11:56;96476.25;;;22.24;52.42
45345;BME280;31078;48.304;11.896;2023-07-13T12:14:23;96476.69;;;22.26;53.41
45345;BME280;31078;48.304;11.896;2023-07-13T12:16:52;96476.34;;;22.45;54.00
45345;BME280;31078;48.304;11.896;2023-07-13T12:19:21;96470.00;;;22.48;50.65
45345;BME280;31078;48.304;11.896;2023-07-13T12:21:48;96466.06;;;22.56;54.27
45345;BME280;31078;48.304;11.896;2023-07-13T12:24:20;96470.84;;;22.66;53.67
45345;BME280;31078;48.304;11.896;2023-07-13T12:26:51;96460.53;;;22.67;55.31
45345;BME280;31078;48.304;11.896;2023-07-13T12:29:18;96472.41;;;22.64;49.85
45345;BME280;31078;48.304;11.896;2023-07-13T12:31:46;96472.81;;;22.73;51.08
45345;BME280;31078;48.304;11.896;2023-07-13T12:34:14;96466.03;;;22.42;53.33
45345;BME280;31078;48.304;11.896;2023-07-13T12:36:46;96464.34;;;22.16;53.25
45345;BME280;31078;48.304;11.896;2023-07-13T12:39:16;96461.59;;;22.20;54.77
45345;BME280;31078;48.304;11.896;2023-07-13T12:41:45;96458.06;;;22.33;54.24
45345;BME280;31078;48.304;11.896;2023-07-13T12:44:13;96449.75;;;22.30;49.72
45345;BME280;31078;48.304;11.896;2023-07-13T12:46:52;96444.53;;;22.18;50.33
45345;BME280;31078;48.304;11.896;2023-07-13T12:49:23;96452.97;;;22.46;53.94
45345;BME280;31078;48.304;11.896;2023-07-13T12:51:50;96457.34;;;22.61;53.82
45345;BME280;31078;48.304;11.896;2023-07-13T12:54:21;96453.34;;;22.41;48.70